sensor_id;sensor_type;location;lat;lon;timestamp;P1;durP1;ratioP1;P2;durP2;ratioP2
10571;SDS011;5334;48.928;12.704;2023-11-19T00:01:56;38.77;;;37.07;;
10571;SDS011;5334;48.928;12.704;2023-11-19T00:04:22;38.30;;;36.63;;
10571;SDS011;5334;48.928;12.704;2023-11-19T00:06:48;37.53;;;35.87;;
10571;SDS011;5334;48.928;12.704;2023-11-19T00:09:13;33.47;;;31.97;;
10571;SDS011;5334;48.928;12.704;2023-11-19T00:11:41;39.87;;;38.10;;
10571;SDS011;5334;48.928;12.704;2023-11-19T00:14:07;46.70;;;44.60;;
10571;SDS011;5334;48.928;12.704;2023-11-19T00:16:33;42.03;;;40.17;;
10571;SDS011;5334;48.928;12.704;2023-11-19T00:18:59;40.53;;;38.73;;
10571;SDS011;5334;48.928;12.704;2023-11-19T00:21:25;39.67;;;37.90;;
10571;SDS011;5334;48.928;12.704;2023-11-19T00:23:53;43.57;;;41.67;;
10571;SDS011;5334;48.928;12.704;2023-11-19T00:26:19;50.73;;;48.53;;
10571;SDS011;5334;48.928;12.704;2023-11-19T00:28:45;43.07;;;41.17;;
10571;SDS011;5334;48.928;12.704;2023-11-19T00:31:13;40.70;;;38.90;;
10571;SDS011;5334;48.928;12.704;2023-11-19T00:33:38;38.17;;;36.43;;
10571;SDS011;5334;48.928;12.704;2023-11-19T00:36:05;40.60;;;38.80;;
10571;SDS011;5334;48.928;12.704;2023-11-19T00:38:31;39.30;;;37.60;;
10571;SDS011;5334;48.928;12.704;2023-11-19T00:40:57;40.03;;;38.30;;
10571;SDS011;5334;48.928;12.704;2023-11-19T00:43:22;37.10;;;35.47;;
10571;SDS011;5334;48.928;12.704;2023-11-19T00:45:48;38.83;;;37.13;;
10571;SDS011;5334;48.928;12.704;2023-11-19T00:48:17;43.30;;;41.40;;
10571;SDS011;5334;48.928;12.704;2023-11-19T00:50:43;43.63;;;41.73;;
10571;SDS011;5334;48.928;12.704;2023-11-19T00:53:10;42.60;;;40.70;;
10571;SDS011;5334;48.928;12.704;2023-11-19T00:55:36;44.93;;;42.93;;
10571;SDS011;5334;48.928;12.704;2023-11-19T00:58:01;47.83;;;45.73;;
10571;SDS011;5334;48.928;12.704;2023-11-19T01:00:28;46.23;;;44.13;;
10571;SDS011;5334;48.928;12.704;2023-11-19T01:02:54;45.13;;;43.13;;
10571;SDS011;5334;48.928;12.704;2023-11-19T01:05:20;45.73;;;43.73;;
10571;SDS011;5334;48.928;12.704;2023-11-19T01:07:49;47.07;;;45.00;;
10571;SDS011;5334;48.928;12.704;2023-11-19T01:10:15;52.03;;;49.73;;
10571;SDS011;5334;48.928;12.704;2023-11-19T01:12:41;47.17;;;45.10;;
10571;SDS011;5334;48.928;12.704;2023-11-19T01:15:07;47.00;;;44.90;;
10571;SDS011;5334;48.928;12.704;2023-11-19T01:17:33;39.37;;;37.67;;
10571;SDS011;5334;48.928;12.704;2023-11-19T01:19:59;39.47;;;37.77;;
10571;SDS011;5334;48.928;12.704;2023-11-19T01:22:25;37.43;;;35.77;;
10571;SDS011;5334;48.928;12.704;2023-11-19T01:24:51;42.17;;;40.33;;
10571;SDS011;5334;48.928;12.704;2023-11-19T01:27:17;34.83;;;33.33;;
10571;SDS011;5334;48.928;12.704;2023-11-19T01:29:42;39.13;;;37.43;;
10571;SDS011;5334;48.928;12.704;2023-11-19T01:32:08;38.20;;;36.50;;
10571;SDS011;5334;48.928;12.704;2023-11-19T01:34:34;41.10;;;39.30;;
10571;SDS011;5334;48.928;12.704;2023-11-19T01:37:01;34.40;;;32.90;;
10571;SDS011;5334;48.928;12.704;2023-11-19T01:39:26;38.80;;;37.10;;
10571;SDS011;5334;48.928;12.704;2023-11-19T01:41:52;35.77;;;34.17;;
10571;SDS011;5334;48.928;12.704;2023-11-19T01:44:19;36.80;;;35.17;;
10571;SDS011;5334;48.928;12.704;2023-11-19T01:46:47;40.77;;;38.97;;
10571;SDS011;5334;48.928;12.704;2023-11-19T01:49:15;35.83;;;34.23;;
10571;SDS011;5334;48.928;12.704;2023-11-19T01:51:42;38.50;;;36.80;;
10571;SDS011;5334;48.928;12.704;2023-11-19T01:54:08;35.53;;;33.97;;
10571;SDS011;5334;48.928;12.704;2023-11-19T01:56:35;38.17;;;36.47;;
10571;SDS011;5334;48.928;12.704;2023-11-19T01:59:02;39.23;;;37.53;;
10571;SDS011;5334;48.928;12.704;2023-11-19T02:01:29;38.37;;;36.67;;
10571;SDS011;5334;48.928;12.704;2023-11-19T02:03:55;35.40;;;33.83;;
10571;SDS011;5334;48.928;12.704;2023-11-19T02:06:23;41.17;;;39.37;;
10571;SDS011;5334;48.928;12.704;2023-11-19T02:08:49;42.63;;;40.73;;
10571;SDS011;5334;48.928;12.704;2023-11-19T02:11:15;40.30;;;38.50;;
10571;SDS011;5334;48.928;12.704;2023-11-19T02:13:41;42.63;;;40.73;;
10571;SDS011;5334;48.928;12.704;2023-11-19T02:16:07;35.67;;;34.10;;
10571;SDS011;5334;48.928;12.704;2023-11-19T02:18:34;41.00;;;39.20;;
10571;SDS011;5334;48.928;12.704;2023-11-19T02:21:00;39.10;;;37.37;;
10571;SDS011;5334;48.928;12.704;2023-11-19T02:23:26;39.70;;;37.93;;
10571;SDS011;5334;48.928;12.704;2023-11-19T02:28:47;38.10;;;36.40;;
10571;SDS011;5334;48.928;12.704;2023-11-19T02:31:13;44.23;;;42.27;;
10571;SDS011;5334;48.928;12.704;2023-11-19T02:33:39;41.73;;;39.90;;
10571;SDS011;5334;48.928;12.704;2023-11-19T02:36:05;37.37;;;35.67;;
10571;SDS011;5334;48.928;12.704;2023-11-19T02:38:34;37.07;;;35.47;;
10571;SDS011;5334;48.928;12.704;2023-11-19T02:41:03;45.40;;;43.40;;
10571;SDS011;5334;48.928;12.704;2023-11-19T02:43:34;38.10;;;36.40;;
10571;SDS011;5334;48.928;12.704;2023-11-19T02:46:02;39.77;;;38.03;;
10571;SDS011;5334;48.928;12.704;2023-11-19T02:48:35;42.37;;;40.47;;
10571;SDS011;5334;48.928;12.704;2023-11-19T02:51:01;35.93;;;34.33;;
10571;SDS011;5334;48.928;12.704;2023-11-19T02:53:30;40.87;;;39.07;;
10571;SDS011;5334;48.928;12.704;2023-11-19T02:55:56;35.07;;;33.57;;
10571;SDS011;5334;48.928;12.704;2023-11-19T02:58:36;38.03;;;36.33;;
10571;SDS011;5334;48.928;12.704;2023-11-19T03:01:03;34.67;;;33.17;;
10571;SDS011;5334;48.928;12.704;2023-11-19T03:03:37;36.67;;;35.07;;
10571;SDS011;5334;48.928;12.704;2023-11-19T03:06:05;40.93;;;39.13;;
10571;SDS011;5334;48.928;12.704;2023-11-19T03:08:32;36.77;;;35.17;;
10571;SDS011;5334;48.928;12.704;2023-11-19T03:11:01;39.33;;;37.63;;
10571;SDS011;5334;48.928;12.704;2023-11-19T03:13:27;32.40;;;31.00;;
10571;SDS011;5334;48.928;12.704;2023-11-19T03:15:52;32.60;;;31.20;;
10571;SDS011;5334;48.928;12.704;2023-11-19T03:18:21;42.33;;;40.43;;
10571;SDS011;5334;48.928;12.704;2023-11-19T03:20:47;37.77;;;36.10;;
10571;SDS011;5334;48.928;12.704;2023-11-19T03:23:13;35.53;;;33.93;;
10571;SDS011;5334;48.928;12.704;2023-11-19T03:25:38;38.13;;;36.33;;
10571;SDS011;5334;48.928;12.704;2023-11-19T03:28:04;34.80;;;33.27;;
10571;SDS011;5334;48.928;12.704;2023-11-19T03:30:30;31.37;;;30.00;;
10571;SDS011;5334;48.928;12.704;2023-11-19T03:32:56;40.90;;;39.10;;
10571;SDS011;5334;48.928;12.704;2023-11-19T03:35:22;36.53;;;34.93;;
10571;SDS011;5334;48.928;12.704;2023-11-19T03:37:49;38.37;;;36.67;;
10571;SDS011;5334;48.928;12.704;2023-11-19T03:40:16;35.13;;;33.53;;
10571;SDS011;5334;48.928;12.704;2023-11-19T03:42:42;36.00;;;34.40;;
10571;SDS011;5334;48.928;12.704;2023-11-19T03:45:09;36.13;;;34.53;;
10571;SDS011;5334;48.928;12.704;2023-11-19T03:47:35;34.70;;;33.20;;
10571;SDS011;5334;48.928;12.704;2023-11-19T03:50:01;37.13;;;35.53;;
10571;SDS011;5334;48.928;12.704;2023-11-19T03:52:27;37.13;;;35.53;;
10571;SDS011;5334;48.928;12.704;2023-11-19T03:54:54;39.20;;;37.40;;
10571;SDS011;5334;48.928;12.704;2023-11-19T03:57:20;36.33;;;34.73;;
10571;SDS011;5334;48.928;12.704;2023-11-19T03:59:46;39.10;;;37.30;;
10571;SDS011;5334;48.928;12.704;2023-11-19T04:02:12;36.90;;;35.30;;
10571;SDS011;5334;48.928;12.704;2023-11-19T04:04:38;40.10;;;38.33;;
10571;SDS011;5334;48.928;12.704;2023-11-19T04:07:05;39.97;;;38.20;;
10571;SDS011;5334;48.928;12.704;2023-11-19T04:09:31;36.70;;;35.10;;
10571;SDS011;5334;48.928;12.704;2023-11-19T04:12:00;34.57;;;33.07;;
10571;SDS011;5334;48.928;12.704;2023-11-19T04:14:26;43.43;;;41.53;;
10571;SDS011;5334;48.928;12.704;2023-11-19T04:16:52;38.20;;;36.50;;
10571;SDS011;5334;48.928;12.704;2023-11-19T04:19:18;35.53;;;33.97;;
10571;SDS011;5334;48.928;12.704;2023-11-19T04:21:44;36.67;;;35.07;;
10571;SDS011;5334;48.928;12.704;2023-11-19T04:24:11;30.03;;;28.73;;
10571;SDS011;5334;48.928;12.704;2023-11-19T04:26:44;35.47;;;33.90;;
10571;SDS011;5334;48.928;12.704;2023-11-19T04:29:13;33.20;;;31.73;;
10571;SDS011;5334;48.928;12.704;2023-11-19T04:31:40;35.60;;;34.00;;
10571;SDS011;5334;48.928;12.704;2023-11-19T04:34:06;37.00;;;35.40;;
10571;SDS011;5334;48.928;12.704;2023-11-19T04:36:34;39.80;;;38.07;;
10571;SDS011;5334;48.928;12.704;2023-11-19T04:39:00;36.50;;;34.90;;
10571;SDS011;5334;48.928;12.704;2023-11-19T04:41:26;35.60;;;34.03;;
10571;SDS011;5334;48.928;12.704;2023-11-19T04:43:55;44.67;;;42.67;;
10571;SDS011;5334;48.928;12.704;2023-11-19T04:46:21;41.87;;;40.03;;
10571;SDS011;5334;48.928;12.704;2023-11-19T04:48:48;37.50;;;35.87;;
10571;SDS011;5334;48.928;12.704;2023-11-19T04:51:15;36.27;;;34.67;;
10571;SDS011;5334;48.928;12.704;2023-11-19T04:53:40;33.80;;;32.30;;
10571;SDS011;5334;48.928;12.704;2023-11-19T04:56:09;37.37;;;35.73;;
10571;SDS011;5334;48.928;12.704;2023-11-19T04:58:36;38.23;;;36.53;;
10571;SDS011;5334;48.928;12.704;2023-11-19T05:01:05;44.93;;;42.97;;
10571;SDS011;5334;48.928;12.704;2023-11-19T05:03:31;34.20;;;32.70;;
10571;SDS011;5334;48.928;12.704;2023-11-19T05:05:57;43.70;;;41.80;;
10571;SDS011;5334;48.928;12.704;2023-11-19T05:08:23;45.23;;;43.23;;
10571;SDS011;5334;48.928;12.704;2023-11-19T05:10:49;37.30;;;35.70;;
10571;SDS011;5334;48.928;12.704;2023-11-19T05:13:18;42.87;;;40.97;;
10571;SDS011;5334;48.928;12.704;2023-11-19T05:15:43;37.20;;;35.60;;
10571;SDS011;5334;48.928;12.704;2023-11-19T05:18:09;39.77;;;38.03;;
10571;SDS011;5334;48.928;12.704;2023-11-19T05:20:35;42.40;;;40.53;;
10571;SDS011;5334;48.928;12.704;2023-11-19T05:23:00;44.30;;;42.37;;
10571;SDS011;5334;48.928;12.704;2023-11-19T05:25:26;41.60;;;39.77;;
10571;SDS011;5334;48.928;12.704;2023-11-19T05:27:53;41.20;;;38.73;;
10571;SDS011;5334;48.928;12.704;2023-11-19T05:30:18;45.83;;;43.83;;
10571;SDS011;5334;48.928;12.704;2023-11-19T05:32:44;34.63;;;33.13;;
10571;SDS011;5334;48.928;12.704;2023-11-19T05:35:11;38.77;;;37.07;;
10571;SDS011;5334;48.928;12.704;2023-11-19T05:37:37;40.73;;;38.93;;
10571;SDS011;5334;48.928;12.704;2023-11-19T05:40:03;34.50;;;33.00;;
10571;SDS011;5334;48.928;12.704;2023-11-19T05:42:37;42.53;;;40.67;;
10571;SDS011;5334;48.928;12.704;2023-11-19T05:45:03;44.40;;;42.47;;
10571;SDS011;5334;48.928;12.704;2023-11-19T05:47:29;35.13;;;33.60;;
10571;SDS011;5334;48.928;12.704;2023-11-19T05:49:54;41.30;;;39.50;;
10571;SDS011;5334;48.928;12.704;2023-11-19T05:52:20;39.13;;;37.43;;
10571;SDS011;5334;48.928;12.704;2023-11-19T05:54:47;46.13;;;44.13;;
10571;SDS011;5334;48.928;12.704;2023-11-19T05:57:16;47.57;;;45.47;;
10571;SDS011;5334;48.928;12.704;2023-11-19T05:59:47;36.47;;;34.87;;
10571;SDS011;5334;48.928;12.704;2023-11-19T06:02:13;38.10;;;36.40;;
10571;SDS011;5334;48.928;12.704;2023-11-19T06:04:39;38.07;;;36.37;;
10571;SDS011;5334;48.928;12.704;2023-11-19T06:07:05;36.20;;;34.60;;
10571;SDS011;5334;48.928;12.704;2023-11-19T06:09:30;41.97;;;40.13;;
10571;SDS011;5334;48.928;12.704;2023-11-19T06:11:58;35.03;;;33.53;;
10571;SDS011;5334;48.928;12.704;2023-11-19T06:14:26;40.73;;;38.97;;
10571;SDS011;5334;48.928;12.704;2023-11-19T06:16:52;45.13;;;43.13;;
10571;SDS011;5334;48.928;12.704;2023-11-19T06:19:18;45.97;;;43.97;;
10571;SDS011;5334;48.928;12.704;2023-11-19T06:21:44;38.87;;;37.17;;
10571;SDS011;5334;48.928;12.704;2023-11-19T06:24:09;41.47;;;39.67;;
10571;SDS011;5334;48.928;12.704;2023-11-19T06:26:35;47.67;;;45.57;;
10571;SDS011;5334;48.928;12.704;2023-11-19T06:29:00;46.67;;;44.63;;
10571;SDS011;5334;48.928;12.704;2023-11-19T06:31:26;44.60;;;42.63;;
10571;SDS011;5334;48.928;12.704;2023-11-19T06:33:55;54.17;;;51.77;;
10571;SDS011;5334;48.928;12.704;2023-11-19T06:36:20;47.90;;;45.80;;
10571;SDS011;5334;48.928;12.704;2023-11-19T06:38:46;41.10;;;39.30;;
10571;SDS011;5334;48.928;12.704;2023-11-19T06:41:12;40.30;;;38.50;;
10571;SDS011;5334;48.928;12.704;2023-11-19T06:43:38;40.07;;;38.33;;
10571;SDS011;5334;48.928;12.704;2023-11-19T06:46:04;38.57;;;36.87;;
10571;SDS011;5334;48.928;12.704;2023-11-19T06:48:34;41.90;;;40.10;;
10571;SDS011;5334;48.928;12.704;2023-11-19T06:51:00;46.87;;;44.80;;
10571;SDS011;5334;48.928;12.704;2023-11-19T06:53:25;50.77;;;48.53;;
10571;SDS011;5334;48.928;12.704;2023-11-19T06:55:53;52.60;;;50.30;;
10571;SDS011;5334;48.928;12.704;2023-11-19T06:58:19;38.60;;;36.90;;
10571;SDS011;5334;48.928;12.704;2023-11-19T07:00:44;38.20;;;36.53;;
10571;SDS011;5334;48.928;12.704;2023-11-19T07:03:12;49.13;;;46.97;;
10571;SDS011;5334;48.928;12.704;2023-11-19T07:05:38;43.80;;;41.90;;
10571;SDS011;5334;48.928;12.704;2023-11-19T07:08:04;50.47;;;48.27;;
10571;SDS011;5334;48.928;12.704;2023-11-19T07:10:32;38.87;;;37.17;;
10571;SDS011;5334;48.928;12.704;2023-11-19T07:12:58;42.83;;;40.93;;
10571;SDS011;5334;48.928;12.704;2023-11-19T07:15:24;41.20;;;39.40;;
10571;SDS011;5334;48.928;12.704;2023-11-19T07:17:50;59.53;;;56.90;;
10571;SDS011;5334;48.928;12.704;2023-11-19T07:20:15;50.27;;;48.07;;
10571;SDS011;5334;48.928;12.704;2023-11-19T07:22:42;59.60;;;57.00;;
10571;SDS011;5334;48.928;12.704;2023-11-19T07:25:10;68.07;;;65.07;;
10571;SDS011;5334;48.928;12.704;2023-11-19T07:27:39;44.03;;;42.10;;
10571;SDS011;5334;48.928;12.704;2023-11-19T07:30:05;47.63;;;45.53;;
10571;SDS011;5334;48.928;12.704;2023-11-19T07:32:32;64.30;;;61.47;;
10571;SDS011;5334;48.928;12.704;2023-11-19T07:34:58;43.93;;;42.03;;
10571;SDS011;5334;48.928;12.704;2023-11-19T07:37:24;41.93;;;40.13;;
10571;SDS011;5334;48.928;12.704;2023-11-19T07:39:50;45.27;;;43.27;;
10571;SDS011;5334;48.928;12.704;2023-11-19T07:42:16;42.53;;;40.63;;
10571;SDS011;5334;48.928;12.704;2023-11-19T07:44:42;52.67;;;50.33;;
10571;SDS011;5334;48.928;12.704;2023-11-19T07:47:08;46.30;;;44.30;;
10571;SDS011;5334;48.928;12.704;2023-11-19T07:49:35;53.13;;;50.80;;
10571;SDS011;5334;48.928;12.704;2023-11-19T07:52:00;48.00;;;45.90;;
10571;SDS011;5334;48.928;12.704;2023-11-19T07:54:28;47.30;;;45.20;;
10571;SDS011;5334;48.928;12.704;2023-11-19T07:56:54;60.63;;;57.97;;
10571;SDS011;5334;48.928;12.704;2023-11-19T07:59:20;65.10;;;62.20;;
10571;SDS011;5334;48.928;12.704;2023-11-19T08:01:46;61.80;;;59.03;;
10571;SDS011;5334;48.928;12.704;2023-11-19T08:04:12;56.70;;;54.20;;
10571;SDS011;5334;48.928;12.704;2023-11-19T08:06:38;46.20;;;44.20;;
10571;SDS011;5334;48.928;12.704;2023-11-19T08:09:04;51.17;;;48.93;;
10571;SDS011;5334;48.928;12.704;2023-11-19T08:11:31;48.10;;;46.00;;
10571;SDS011;5334;48.928;12.704;2023-11-19T08:13:57;58.13;;;55.57;;
10571;SDS011;5334;48.928;12.704;2023-11-19T08:16:23;59.13;;;56.53;;
10571;SDS011;5334;48.928;12.704;2023-11-19T08:18:48;42.23;;;40.40;;
10571;SDS011;5334;48.928;12.704;2023-11-19T08:21:14;50.23;;;48.03;;
10571;SDS011;5334;48.928;12.704;2023-11-19T08:23:40;70.63;;;67.53;;
10571;SDS011;5334;48.928;12.704;2023-11-19T08:26:06;62.40;;;59.67;;
10571;SDS011;5334;48.928;12.704;2023-11-19T08:28:32;49.87;;;47.67;;
10571;SDS011;5334;48.928;12.704;2023-11-19T08:30:59;46.03;;;44.03;;
10571;SDS011;5334;48.928;12.704;2023-11-19T08:33:26;55.30;;;52.90;;
10571;SDS011;5334;48.928;12.704;2023-11-19T08:35:52;62.87;;;60.17;;
10571;SDS011;5334;48.928;12.704;2023-11-19T08:38:17;56.37;;;53.90;;
10571;SDS011;5334;48.928;12.704;2023-11-19T08:40:43;65.87;;;62.97;;
10571;SDS011;5334;48.928;12.704;2023-11-19T08:43:09;68.93;;;65.93;;
10571;SDS011;5334;48.928;12.704;2023-11-19T08:45:34;57.73;;;55.23;;
10571;SDS011;5334;48.928;12.704;2023-11-19T08:48:01;54.57;;;52.17;;
10571;SDS011;5334;48.928;12.704;2023-11-19T08:50:27;57.80;;;55.27;;
10571;SDS011;5334;48.928;12.704;2023-11-19T08:52:53;55.17;;;52.73;;
10571;SDS011;5334;48.928;12.704;2023-11-19T08:55:18;56.53;;;54.03;;
10571;SDS011;5334;48.928;12.704;2023-11-19T08:57:44;50.93;;;48.67;;
10571;SDS011;5334;48.928;12.704;2023-11-19T09:00:10;58.37;;;55.80;;
10571;SDS011;5334;48.928;12.704;2023-11-19T09:02:39;50.40;;;48.20;;
10571;SDS011;5334;48.928;12.704;2023-11-19T09:05:05;45.03;;;43.03;;
10571;SDS011;5334;48.928;12.704;2023-11-19T09:07:32;50.37;;;48.17;;
10571;SDS011;5334;48.928;12.704;2023-11-19T09:09:58;45.80;;;43.80;;
10571;SDS011;5334;48.928;12.704;2023-11-19T09:12:24;51.03;;;48.80;;
10571;SDS011;5334;48.928;12.704;2023-11-19T09:14:49;42.40;;;40.50;;
10571;SDS011;5334;48.928;12.704;2023-11-19T09:17:15;50.07;;;47.87;;
10571;SDS011;5334;48.928;12.704;2023-11-19T09:19:42;45.23;;;43.23;;
10571;SDS011;5334;48.928;12.704;2023-11-19T09:22:08;46.97;;;44.87;;
10571;SDS011;5334;48.928;12.704;2023-11-19T09:24:33;47.70;;;45.60;;
10571;SDS011;5334;48.928;12.704;2023-11-19T09:26:59;46.37;;;44.33;;
10571;SDS011;5334;48.928;12.704;2023-11-19T09:29:25;48.40;;;46.30;;
10571;SDS011;5334;48.928;12.704;2023-11-19T09:31:50;53.60;;;51.23;;
10571;SDS011;5334;48.928;12.704;2023-11-19T09:34:16;47.13;;;45.03;;
10571;SDS011;5334;48.928;12.704;2023-11-19T09:36:42;49.07;;;46.87;;
10571;SDS011;5334;48.928;12.704;2023-11-19T09:39:09;50.97;;;48.73;;
10571;SDS011;5334;48.928;12.704;2023-11-19T09:41:40;47.20;;;45.10;;
10571;SDS011;5334;48.928;12.704;2023-11-19T09:44:07;53.00;;;50.70;;
10571;SDS011;5334;48.928;12.704;2023-11-19T09:46:34;50.23;;;48.03;;
10571;SDS011;5334;48.928;12.704;2023-11-19T09:49:00;51.63;;;49.37;;
10571;SDS011;5334;48.928;12.704;2023-11-19T09:51:27;52.50;;;50.20;;
10571;SDS011;5334;48.928;12.704;2023-11-19T09:53:53;50.23;;;48.03;;
10571;SDS011;5334;48.928;12.704;2023-11-19T09:56:19;49.07;;;46.90;;
10571;SDS011;5334;48.928;12.704;2023-11-19T09:58:45;48.57;;;46.43;;
10571;SDS011;5334;48.928;12.704;2023-11-19T10:01:11;58.43;;;55.87;;
10571;SDS011;5334;48.928;12.704;2023-11-19T10:03:37;66.60;;;63.70;;
10571;SDS011;5334;48.928;12.704;2023-11-19T10:06:06;66.10;;;63.20;;
10571;SDS011;5334;48.928;12.704;2023-11-19T10:08:33;68.00;;;65.00;;
10571;SDS011;5334;48.928;12.704;2023-11-19T10:10:59;79.17;;;75.67;;
10571;SDS011;5334;48.928;12.704;2023-11-19T10:13:28;56.40;;;53.90;;
10571;SDS011;5334;48.928;12.704;2023-11-19T10:15:55;64.23;;;61.43;;
10571;SDS011;5334;48.928;12.704;2023-11-19T10:18:24;62.93;;;60.13;;
10571;SDS011;5334;48.928;12.704;2023-11-19T10:20:53;57.37;;;54.87;;
10571;SDS011;5334;48.928;12.704;2023-11-19T10:23:20;51.23;;;48.97;;
10571;SDS011;5334;48.928;12.704;2023-11-19T10:25:45;60.83;;;58.17;;
10571;SDS011;5334;48.928;12.704;2023-11-19T10:28:11;62.17;;;59.47;;
10571;SDS011;5334;48.928;12.704;2023-11-19T10:30:37;59.83;;;57.13;;
10571;SDS011;5334;48.928;12.704;2023-11-19T10:33:04;69.10;;;66.07;;
10571;SDS011;5334;48.928;12.704;2023-11-19T10:35:31;67.50;;;64.50;;
10571;SDS011;5334;48.928;12.704;2023-11-19T10:38:15;65.63;;;62.73;;
10571;SDS011;5334;48.928;12.704;2023-11-19T10:40:42;51.03;;;48.80;;
10571;SDS011;5334;48.928;12.704;2023-11-19T10:43:08;45.23;;;43.23;;
10571;SDS011;5334;48.928;12.704;2023-11-19T10:45:34;56.87;;;54.33;;
10571;SDS011;5334;48.928;12.704;2023-11-19T10:48:04;53.17;;;50.80;;
10571;SDS011;5334;48.928;12.704;2023-11-19T10:50:37;55.13;;;52.70;;
10571;SDS011;5334;48.928;12.704;2023-11-19T10:53:04;54.47;;;52.07;;
10571;SDS011;5334;48.928;12.704;2023-11-19T10:55:32;62.10;;;59.37;;
10571;SDS011;5334;48.928;12.704;2023-11-19T10:58:03;53.43;;;51.07;;
10571;SDS011;5334;48.928;12.704;2023-11-19T11:00:33;60.50;;;57.83;;
10571;SDS011;5334;48.928;12.704;2023-11-19T11:03:19;57.00;;;54.50;;
10571;SDS011;5334;48.928;12.704;2023-11-19T11:05:48;50.43;;;48.20;;
10571;SDS011;5334;48.928;12.704;2023-11-19T11:08:14;57.57;;;54.97;;
10571;SDS011;5334;48.928;12.704;2023-11-19T11:11:01;61.30;;;58.60;;
10571;SDS011;5334;48.928;12.704;2023-11-19T11:13:27;60.90;;;58.20;;
10571;SDS011;5334;48.928;12.704;2023-11-19T11:15:54;61.00;;;58.27;;
10571;SDS011;5334;48.928;12.704;2023-11-19T11:18:23;59.57;;;56.97;;
10571;SDS011;5334;48.928;12.704;2023-11-19T11:20:50;59.77;;;57.10;;
10571;SDS011;5334;48.928;12.704;2023-11-19T11:23:26;53.60;;;51.27;;
10571;SDS011;5334;48.928;12.704;2023-11-19T11:26:09;61.03;;;58.33;;
10571;SDS011;5334;48.928;12.704;2023-11-19T11:29:10;59.80;;;57.17;;
10571;SDS011;5334;48.928;12.704;2023-11-19T11:31:55;55.17;;;52.73;;
10571;SDS011;5334;48.928;12.704;2023-11-19T11:39:58;58.97;;;56.37;;
10571;SDS011;5334;48.928;12.704;2023-11-19T11:45:01;59.23;;;56.63;;
10571;SDS011;5334;48.928;12.704;2023-11-19T11:58:05;63.60;;;60.83;;
10571;SDS011;5334;48.928;12.704;2023-11-19T12:00:31;64.80;;;61.97;;
10571;SDS011;5334;48.928;12.704;2023-11-19T12:03:01;64.30;;;61.50;;
10571;SDS011;5334;48.928;12.704;2023-11-19T12:05:29;71.83;;;68.70;;
10571;SDS011;5334;48.928;12.704;2023-11-19T12:08:01;61.47;;;58.77;;
10571;SDS011;5334;48.928;12.704;2023-11-19T12:10:30;65.47;;;62.60;;
10571;SDS011;5334;48.928;12.704;2023-11-19T12:13:04;64.17;;;61.37;;
10571;SDS011;5334;48.928;12.704;2023-11-19T12:15:48;62.00;;;59.30;;
10571;SDS011;5334;48.928;12.704;2023-11-19T12:18:22;65.07;;;62.20;;
10571;SDS011;5334;48.928;12.704;2023-11-19T12:20:48;59.93;;;57.30;;
10571;SDS011;5334;48.928;12.704;2023-11-19T12:23:14;64.93;;;62.03;;
10571;SDS011;5334;48.928;12.704;2023-11-19T12:25:40;72.70;;;69.53;;
10571;SDS011;5334;48.928;12.704;2023-11-19T12:28:11;59.10;;;56.50;;
10571;SDS011;5334;48.928;12.704;2023-11-19T12:30:38;65.60;;;62.70;;
10571;SDS011;5334;48.928;12.704;2023-11-19T12:33:07;64.27;;;61.47;;
10571;SDS011;5334;48.928;12.704;2023-11-19T12:35:43;52.37;;;50.07;;
10571;SDS011;5334;48.928;12.704;2023-11-19T12:38:19;53.07;;;50.77;;
10571;SDS011;5334;48.928;12.704;2023-11-19T12:41:10;53.23;;;50.90;;
10571;SDS011;5334;48.928;12.704;2023-11-19T12:43:36;52.47;;;50.17;;
10571;SDS011;5334;48.928;12.704;2023-11-19T12:46:03;56.03;;;53.57;;
10571;SDS011;5334;48.928;12.704;2023-11-19T12:48:50;54.03;;;51.63;;
10571;SDS011;5334;48.928;12.704;2023-11-19T12:51:16;46.43;;;44.43;;
10571;SDS011;5334;48.928;12.704;2023-11-19T12:53:51;57.70;;;55.17;;
10571;SDS011;5334;48.928;12.704;2023-11-19T12:56:20;54.13;;;51.73;;
10571;SDS011;5334;48.928;12.704;2023-11-19T12:58:46;55.70;;;53.27;;
10571;SDS011;5334;48.928;12.704;2023-11-19T13:01:19;58.33;;;55.77;;
10571;SDS011;5334;48.928;12.704;2023-11-19T13:03:46;55.07;;;52.67;;
10571;SDS011;5334;48.928;12.704;2023-11-19T13:06:14;56.40;;;53.90;;
10571;SDS011;5334;48.928;12.704;2023-11-19T13:11:07;62.93;;;60.20;;
10571;SDS011;5334;48.928;12.704;2023-11-19T13:13:33;54.97;;;52.57;;
10571;SDS011;5334;48.928;12.704;2023-11-19T13:16:19;54.03;;;51.63;;
10571;SDS011;5334;48.928;12.704;2023-11-19T13:18:44;65.47;;;62.57;;
10571;SDS011;5334;48.928;12.704;2023-11-19T13:21:10;67.10;;;64.20;;
10571;SDS011;5334;48.928;12.704;2023-11-19T13:23:36;63.80;;;61.00;;
10571;SDS011;5334;48.928;12.704;2023-11-19T13:26:02;56.13;;;53.67;;
10571;SDS011;5334;48.928;12.704;2023-11-19T13:28:29;64.57;;;61.77;;
10571;SDS011;5334;48.928;12.704;2023-11-19T13:30:55;63.90;;;61.10;;
10571;SDS011;5334;48.928;12.704;2023-11-19T13:33:21;58.80;;;56.20;;
10571;SDS011;5334;48.928;12.704;2023-11-19T13:35:46;64.00;;;61.20;;
10571;SDS011;5334;48.928;12.704;2023-11-19T13:38:12;1999.90;;;999.90;;
10571;SDS011;5334;48.928;12.704;2023-11-19T13:40:38;63.47;;;60.70;;
10571;SDS011;5334;48.928;12.704;2023-11-19T13:43:04;68.47;;;65.50;;
10571;SDS011;5334;48.928;12.704;2023-11-19T13:45:30;1999.90;;;999.90;;
10571;SDS011;5334;48.928;12.704;2023-11-19T13:47:55;1999.90;;;999.90;;
10571;SDS011;5334;48.928;12.704;2023-11-19T13:50:21;1999.90;;;999.90;;
10571;SDS011;5334;48.928;12.704;2023-11-19T13:52:48;1999.90;;;999.90;;
10571;SDS011;5334;48.928;12.704;2023-11-19T13:55:14;1999.90;;;999.90;;
10571;SDS011;5334;48.928;12.704;2023-11-19T13:57:40;1999.90;;;999.90;;
10571;SDS011;5334;48.928;12.704;2023-11-19T14:00:07;1999.90;;;999.90;;
10571;SDS011;5334;48.928;12.704;2023-11-19T14:02:38;1999.90;;;999.90;;
10571;SDS011;5334;48.928;12.704;2023-11-19T14:05:08;1999.90;;;999.90;;
10571;SDS011;5334;48.928;12.704;2023-11-19T14:07:34;1999.90;;;999.90;;
10571;SDS011;5334;48.928;12.704;2023-11-19T14:10:00;1999.90;;;999.90;;
10571;SDS011;5334;48.928;12.704;2023-11-19T14:12:26;1999.90;;;999.90;;
10571;SDS011;5334;48.928;12.704;2023-11-19T14:14:52;1999.90;;;999.90;;
10571;SDS011;5334;48.928;12.704;2023-11-19T14:17:18;1999.90;;;999.90;;
10571;SDS011;5334;48.928;12.704;2023-11-19T14:19:43;1999.90;;;999.90;;
10571;SDS011;5334;48.928;12.704;2023-11-19T14:22:10;1999.90;;;999.90;;
10571;SDS011;5334;48.928;12.704;2023-11-19T14:24:36;1999.90;;;999.90;;
10571;SDS011;5334;48.928;12.704;2023-11-19T14:27:02;1999.90;;;999.90;;
10571;SDS011;5334;48.928;12.704;2023-11-19T14:29:28;1999.90;;;999.90;;
10571;SDS011;5334;48.928;12.704;2023-11-19T14:31:55;1999.90;;;999.90;;
10571;SDS011;5334;48.928;12.704;2023-11-19T14:34:22;1999.90;;;999.90;;
10571;SDS011;5334;48.928;12.704;2023-11-19T14:36:47;1999.90;;;999.90;;
10571;SDS011;5334;48.928;12.704;2023-11-19T14:39:14;1999.90;;;999.90;;
10571;SDS011;5334;48.928;12.704;2023-11-19T14:41:40;1999.90;;;999.90;;
10571;SDS011;5334;48.928;12.704;2023-11-19T14:44:05;1999.90;;;999.90;;